sensor_id;sensor_type;location;lat;lon;timestamp;noise_LAeq;noise_LA_min;noise_LA_max;noise_LA01;noise_LA95
73638;Laerm;53743;51.100;5.874;2022-10-15T00:00:30;30.05;27.59;36.93;;
73638;Laerm;53743;51.100;5.874;2022-10-15T00:01:30;31.01;28.17;35.56;;
73638;Laerm;53743;51.100;5.874;2022-10-15T00:02:31;56.91;28.73;73.92;;
73638;Laerm;53743;51.100;5.874;2022-10-15T00:03:35;45.83;31.23;62.19;;
73638;Laerm;53743;51.100;5.874;2022-10-15T00:04:36;50.62;29.41;68.35;;
73638;Laerm;53743;51.100;5.874;2022-10-15T00:05:39;51.50;29.25;69.13;;
73638;Laerm;53743;51.100;5.874;2022-10-15T00:06:40;55.41;28.89;69.40;;
73638;Laerm;53743;51.100;5.874;2022-10-15T00:07:40;43.84;29.15;60.12;;
73638;Laerm;53743;51.100;5.874;2022-10-15T00:08:41;31.36;28.97;33.93;;
73638;Laerm;53743;51.100;5.874;2022-10-15T00:09:42;56.97;30.23;72.26;;
73638;Laerm;53743;51.100;5.874;2022-10-15T00:10:43;54.91;29.60;70.45;;
73638;Laerm;53743;51.100;5.874;2022-10-15T00:11:43;57.20;28.80;71.97;;
73638;Laerm;53743;51.100;5.874;2022-10-15T00:12:44;31.48;28.74;40.65;;
73638;Laerm;53743;51.100;5.874;2022-10-15T00:13:45;58.03;28.28;73.42;;
73638;Laerm;53743;51.100;5.874;2022-10-15T00:14:46;30.10;28.48;31.59;;
73638;Laerm;53743;51.100;5.874;2022-10-15T00:15:47;30.50;28.09;33.50;;
73638;Laerm;53743;51.100;5.874;2022-10-15T00:16:48;30.69;28.84;36.92;;
73638;Laerm;53743;51.100;5.874;2022-10-15T00:17:48;30.64;28.86;33.12;;
73638;Laerm;53743;51.100;5.874;2022-10-15T00:18:51;31.51;29.01;37.09;;
73638;Laerm;53743;51.100;5.874;2022-10-15T00:19:54;56.25;29.28;71.70;;
73638;Laerm;53743;51.100;5.874;2022-10-15T00:20:55;30.90;28.86;34.96;;
73638;Laerm;53743;51.100;5.874;2022-10-15T00:21:55;33.99;28.84;43.47;;
73638;Laerm;53743;51.100;5.874;2022-10-15T00:22:56;59.14;28.98;72.96;;
73638;Laerm;53743;51.100;5.874;2022-10-15T00:23:57;59.10;36.97;70.07;;
73638;Laerm;53743;51.100;5.874;2022-10-15T00:24:57;51.23;29.82;67.27;;
73638;Laerm;53743;51.100;5.874;2022-10-15T00:26:08;54.11;29.42;68.36;;
73638;Laerm;53743;51.100;5.874;2022-10-15T00:27:09;58.22;29.02;73.08;;
73638;Laerm;53743;51.100;5.874;2022-10-15T00:28:09;31.17;29.30;34.60;;
73638;Laerm;53743;51.100;5.874;2022-10-15T00:29:10;30.61;28.90;35.16;;
73638;Laerm;53743;51.100;5.874;2022-10-15T00:30:12;30.57;29.00;32.20;;
73638;Laerm;53743;51.100;5.874;2022-10-15T00:31:16;44.69;29.51;61.62;;
73638;Laerm;53743;51.100;5.874;2022-10-15T00:32:21;60.89;29.10;75.72;;
73638;Laerm;53743;51.100;5.874;2022-10-15T00:33:22;59.51;29.95;73.79;;
73638;Laerm;53743;51.100;5.874;2022-10-15T00:34:23;61.92;36.38;76.62;;
73638;Laerm;53743;51.100;5.874;2022-10-15T00:35:24;48.05;28.39;65.10;;
73638;Laerm;53743;51.100;5.874;2022-10-15T00:36:29;56.51;28.95;72.89;;
73638;Laerm;53743;51.100;5.874;2022-10-15T00:37:30;30.96;28.51;38.33;;
73638;Laerm;53743;51.100;5.874;2022-10-15T00:38:30;30.45;28.43;40.58;;
73638;Laerm;53743;51.100;5.874;2022-10-15T00:39:31;29.87;27.74;43.08;;
73638;Laerm;53743;51.100;5.874;2022-10-15T00:40:32;32.49;28.17;39.18;;
73638;Laerm;53743;51.100;5.874;2022-10-15T00:41:39;29.69;27.90;32.26;;
73638;Laerm;53743;51.100;5.874;2022-10-15T00:42:41;29.75;28.16;33.24;;
73638;Laerm;53743;51.100;5.874;2022-10-15T00:43:48;32.61;27.78;41.34;;
73638;Laerm;53743;51.100;5.874;2022-10-15T00:45:53;52.10;27.99;66.09;;
73638;Laerm;53743;51.100;5.874;2022-10-15T00:47:17;29.98;28.34;32.79;;
73638;Laerm;53743;51.100;5.874;2022-10-15T00:48:18;29.71;28.09;32.35;;
73638;Laerm;53743;51.100;5.874;2022-10-15T00:49:34;30.22;28.54;32.37;;
73638;Laerm;53743;51.100;5.874;2022-10-15T00:50:37;30.36;28.21;34.82;;
73638;Laerm;53743;51.100;5.874;2022-10-15T00:51:48;57.12;28.22;74.10;;
73638;Laerm;53743;51.100;5.874;2022-10-15T00:53:08;30.86;28.29;38.71;;
73638;Laerm;53743;51.100;5.874;2022-10-15T00:54:11;30.12;28.18;35.19;;
73638;Laerm;53743;51.100;5.874;2022-10-15T00:56:32;30.19;28.31;32.82;;
73638;Laerm;53743;51.100;5.874;2022-10-15T00:57:34;35.11;28.01;42.75;;
73638;Laerm;53743;51.100;5.874;2022-10-15T00:58:35;55.39;27.92;71.58;;
73638;Laerm;53743;51.100;5.874;2022-10-15T00:59:46;29.52;27.44;43.04;;
73638;Laerm;53743;51.100;5.874;2022-10-15T01:00:48;29.80;28.17;35.05;;
73638;Laerm;53743;51.100;5.874;2022-10-15T01:01:50;31.13;27.89;37.69;;
73638;Laerm;53743;51.100;5.874;2022-10-15T01:02:51;30.01;28.16;34.42;;
73638;Laerm;53743;51.100;5.874;2022-10-15T01:03:55;30.14;27.70;43.11;;
73638;Laerm;53743;51.100;5.874;2022-10-15T01:04:56;57.75;28.97;71.93;;
73638;Laerm;53743;51.100;5.874;2022-10-15T01:05:57;30.75;27.68;40.62;;
73638;Laerm;53743;51.100;5.874;2022-10-15T01:06:58;29.52;27.36;32.74;;
73638;Laerm;53743;51.100;5.874;2022-10-15T01:07:58;29.89;27.82;39.62;;
73638;Laerm;53743;51.100;5.874;2022-10-15T01:08:59;60.10;27.99;75.11;;
73638;Laerm;53743;51.100;5.874;2022-10-15T01:10:04;30.99;28.56;44.59;;
73638;Laerm;53743;51.100;5.874;2022-10-15T01:11:12;30.38;28.70;35.39;;
73638;Laerm;53743;51.100;5.874;2022-10-15T01:12:45;30.50;28.27;37.64;;
73638;Laerm;53743;51.100;5.874;2022-10-15T01:15:43;31.30;28.88;47.78;;
73638;Laerm;53743;51.100;5.874;2022-10-15T01:16:54;30.41;28.47;33.39;;
73638;Laerm;53743;51.100;5.874;2022-10-15T01:18:03;30.34;28.30;36.23;;
73638;Laerm;53743;51.100;5.874;2022-10-15T01:21:06;29.64;27.73;31.81;;
73638;Laerm;53743;51.100;5.874;2022-10-15T01:24:33;33.07;29.87;43.49;;
73638;Laerm;53743;51.100;5.874;2022-10-15T01:26:12;32.56;28.67;41.84;;
73638;Laerm;53743;51.100;5.874;2022-10-15T01:27:35;31.75;28.90;43.61;;
73638;Laerm;53743;51.100;5.874;2022-10-15T01:30:25;30.33;28.29;33.13;;
73638;Laerm;53743;51.100;5.874;2022-10-15T01:31:46;29.37;27.80;33.57;;
73638;Laerm;53743;51.100;5.874;2022-10-15T01:35:58;30.02;27.80;34.14;;
73638;Laerm;53743;51.100;5.874;2022-10-15T01:37:17;30.60;28.56;34.21;;
73638;Laerm;53743;51.100;5.874;2022-10-15T01:38:57;57.95;28.74;76.13;;
73638;Laerm;53743;51.100;5.874;2022-10-15T01:40:13;31.04;28.26;42.69;;
73638;Laerm;53743;51.100;5.874;2022-10-15T01:42:39;31.88;29.11;45.90;;
73638;Laerm;53743;51.100;5.874;2022-10-15T01:43:57;31.66;28.80;36.52;;
73638;Laerm;53743;51.100;5.874;2022-10-15T01:45:44;32.30;29.50;49.77;;
73638;Laerm;53743;51.100;5.874;2022-10-15T01:47:05;31.85;28.95;39.09;;
73638;Laerm;53743;51.100;5.874;2022-10-15T01:48:11;31.28;28.89;46.42;;
73638;Laerm;53743;51.100;5.874;2022-10-15T01:49:17;31.90;27.68;35.81;;
73638;Laerm;53743;51.100;5.874;2022-10-15T01:50:29;31.89;29.14;46.18;;
73638;Laerm;53743;51.100;5.874;2022-10-15T01:51:36;53.95;29.24;74.70;;
73638;Laerm;53743;51.100;5.874;2022-10-15T01:52:42;30.91;28.37;34.07;;
73638;Laerm;53743;51.100;5.874;2022-10-15T01:53:46;31.59;28.94;45.27;;
73638;Laerm;53743;51.100;5.874;2022-10-15T01:54:52;30.60;28.37;34.86;;
73638;Laerm;53743;51.100;5.874;2022-10-15T01:56:04;30.53;28.12;33.24;;
73638;Laerm;53743;51.100;5.874;2022-10-15T01:57:08;30.51;28.11;44.89;;
73638;Laerm;53743;51.100;5.874;2022-10-15T01:58:15;30.67;28.41;32.83;;
73638;Laerm;53743;51.100;5.874;2022-10-15T01:59:29;31.37;28.81;34.21;;
73638;Laerm;53743;51.100;5.874;2022-10-15T02:00:31;30.51;28.27;38.48;;
73638;Laerm;53743;51.100;5.874;2022-10-15T02:01:35;39.19;28.36;52.72;;
73638;Laerm;53743;51.100;5.874;2022-10-15T02:02:39;33.60;29.97;39.66;;
73638;Laerm;53743;51.100;5.874;2022-10-15T02:04:44;30.43;28.06;34.05;;
73638;Laerm;53743;51.100;5.874;2022-10-15T02:06:03;30.49;28.56;36.14;;
73638;Laerm;53743;51.100;5.874;2022-10-15T02:09:56;30.57;28.70;33.35;;
73638;Laerm;53743;51.100;5.874;2022-10-15T02:11:12;30.92;28.43;34.41;;
73638;Laerm;53743;51.100;5.874;2022-10-15T02:14:09;61.11;30.49;78.69;;
73638;Laerm;53743;51.100;5.874;2022-10-15T02:15:24;33.93;30.04;40.61;;
73638;Laerm;53743;51.100;5.874;2022-10-15T02:17:08;31.80;28.65;38.66;;
73638;Laerm;53743;51.100;5.874;2022-10-15T02:20:58;30.11;28.09;33.11;;
73638;Laerm;53743;51.100;5.874;2022-10-15T02:22:39;31.99;28.56;40.63;;
73638;Laerm;53743;51.100;5.874;2022-10-15T02:24:05;52.89;29.15;68.88;;
73638;Laerm;53743;51.100;5.874;2022-10-15T02:25:21;30.95;28.50;38.49;;
73638;Laerm;53743;51.100;5.874;2022-10-15T02:26:28;53.15;28.86;68.95;;
73638;Laerm;53743;51.100;5.874;2022-10-15T02:27:32;31.26;28.62;37.86;;
73638;Laerm;53743;51.100;5.874;2022-10-15T02:28:41;31.45;29.50;34.65;;
73638;Laerm;53743;51.100;5.874;2022-10-15T02:29:48;38.41;29.16;51.42;;
73638;Laerm;53743;51.100;5.874;2022-10-15T02:30:53;34.79;29.67;44.61;;
73638;Laerm;53743;51.100;5.874;2022-10-15T02:32:00;31.51;28.80;48.78;;
73638;Laerm;53743;51.100;5.874;2022-10-15T02:33:05;30.49;28.48;32.79;;
73638;Laerm;53743;51.100;5.874;2022-10-15T02:34:12;30.22;28.19;32.44;;
73638;Laerm;53743;51.100;5.874;2022-10-15T02:35:16;30.28;28.69;32.03;;
73638;Laerm;53743;51.100;5.874;2022-10-15T02:36:19;30.54;28.12;33.02;;
73638;Laerm;53743;51.100;5.874;2022-10-15T02:37:25;30.54;28.66;33.53;;
73638;Laerm;53743;51.100;5.874;2022-10-15T02:38:31;30.42;28.49;34.03;;
73638;Laerm;53743;51.100;5.874;2022-10-15T02:39:34;29.93;27.89;32.41;;
73638;Laerm;53743;51.100;5.874;2022-10-15T02:40:39;29.80;28.16;31.67;;
73638;Laerm;53743;51.100;5.874;2022-10-15T02:41:43;29.94;28.35;32.17;;
73638;Laerm;53743;51.100;5.874;2022-10-15T02:42:50;29.60;28.20;31.90;;
73638;Laerm;53743;51.100;5.874;2022-10-15T02:43:51;30.10;28.42;32.76;;
73638;Laerm;53743;51.100;5.874;2022-10-15T02:44:52;29.60;27.84;36.03;;
73638;Laerm;53743;51.100;5.874;2022-10-15T02:45:53;29.43;27.53;31.67;;
73638;Laerm;53743;51.100;5.874;2022-10-15T02:46:57;29.91;27.92;43.34;;
73638;Laerm;53743;51.100;5.874;2022-10-15T02:47:59;31.61;28.88;35.17;;
73638;Laerm;53743;51.100;5.874;2022-10-15T02:48:59;31.21;28.87;41.17;;
73638;Laerm;53743;51.100;5.874;2022-10-15T02:50:02;53.60;29.72;67.56;;
73638;Laerm;53743;51.100;5.874;2022-10-15T02:51:03;31.42;28.97;42.92;;
73638;Laerm;53743;51.100;5.874;2022-10-15T02:52:06;31.31;29.02;45.39;;
73638;Laerm;53743;51.100;5.874;2022-10-15T02:53:06;30.76;28.62;48.64;;
73638;Laerm;53743;51.100;5.874;2022-10-15T02:54:08;30.80;28.60;34.20;;
73638;Laerm;53743;51.100;5.874;2022-10-15T02:55:09;31.04;28.81;41.27;;
73638;Laerm;53743;51.100;5.874;2022-10-15T02:56:09;30.29;28.63;39.96;;
73638;Laerm;53743;51.100;5.874;2022-10-15T02:57:10;30.33;28.45;35.23;;
73638;Laerm;53743;51.100;5.874;2022-10-15T02:58:12;30.34;28.20;40.12;;
73638;Laerm;53743;51.100;5.874;2022-10-15T02:59:16;31.94;28.82;50.02;;
73638;Laerm;53743;51.100;5.874;2022-10-15T03:00:19;30.89;28.68;34.72;;
73638;Laerm;53743;51.100;5.874;2022-10-15T03:01:22;31.33;29.47;33.62;;
73638;Laerm;53743;51.100;5.874;2022-10-15T03:02:23;56.50;29.13;71.05;;
73638;Laerm;53743;51.100;5.874;2022-10-15T03:03:24;32.11;28.11;40.55;;
73638;Laerm;53743;51.100;5.874;2022-10-15T03:04:25;31.58;28.35;41.85;;
73638;Laerm;53743;51.100;5.874;2022-10-15T03:05:25;57.93;29.32;73.61;;
73638;Laerm;53743;51.100;5.874;2022-10-15T03:06:26;30.36;28.63;33.81;;
73638;Laerm;53743;51.100;5.874;2022-10-15T03:07:27;30.03;28.20;35.74;;
73638;Laerm;53743;51.100;5.874;2022-10-15T03:08:28;30.21;28.38;39.01;;
73638;Laerm;53743;51.100;5.874;2022-10-15T03:09:28;29.63;28.02;32.74;;
73638;Laerm;53743;51.100;5.874;2022-10-15T03:10:29;29.71;27.90;31.73;;
73638;Laerm;53743;51.100;5.874;2022-10-15T03:11:30;30.04;28.48;32.91;;
73638;Laerm;53743;51.100;5.874;2022-10-15T03:12:32;29.91;28.30;33.50;;
73638;Laerm;53743;51.100;5.874;2022-10-15T03:13:40;30.32;28.40;43.16;;
73638;Laerm;53743;51.100;5.874;2022-10-15T03:14:41;29.56;27.83;36.21;;
73638;Laerm;53743;51.100;5.874;2022-10-15T03:15:41;53.75;29.35;69.77;;
73638;Laerm;53743;51.100;5.874;2022-10-15T03:16:42;53.55;28.79;68.42;;
73638;Laerm;53743;51.100;5.874;2022-10-15T03:17:44;30.15;28.44;32.82;;
73638;Laerm;53743;51.100;5.874;2022-10-15T03:18:45;29.78;28.14;31.61;;
73638;Laerm;53743;51.100;5.874;2022-10-15T03:19:45;29.52;28.03;31.86;;
73638;Laerm;53743;51.100;5.874;2022-10-15T03:20:56;54.98;28.74;71.47;;
73638;Laerm;53743;51.100;5.874;2022-10-15T03:21:58;30.20;28.56;32.13;;
73638;Laerm;53743;51.100;5.874;2022-10-15T03:23:01;36.22;28.63;48.35;;
73638;Laerm;53743;51.100;5.874;2022-10-15T03:24:04;33.15;29.09;40.16;;
73638;Laerm;53743;51.100;5.874;2022-10-15T03:25:05;31.82;29.37;44.34;;
73638;Laerm;53743;51.100;5.874;2022-10-15T03:26:06;31.85;29.80;38.32;;
73638;Laerm;53743;51.100;5.874;2022-10-15T03:27:07;33.06;29.22;54.16;;
73638;Laerm;53743;51.100;5.874;2022-10-15T03:28:08;48.23;29.03;61.10;;
73638;Laerm;53743;51.100;5.874;2022-10-15T03:29:13;30.92;28.43;35.43;;
73638;Laerm;53743;51.100;5.874;2022-10-15T03:30:26;31.04;28.76;41.44;;
73638;Laerm;53743;51.100;5.874;2022-10-15T03:31:28;31.92;29.83;34.94;;
73638;Laerm;53743;51.100;5.874;2022-10-15T03:32:31;47.90;29.12;61.26;;
73638;Laerm;53743;51.100;5.874;2022-10-15T03:33:32;31.43;29.30;34.85;;
73638;Laerm;53743;51.100;5.874;2022-10-15T03:34:33;31.64;28.36;39.50;;
73638;Laerm;53743;51.100;5.874;2022-10-15T03:35:34;31.18;28.40;34.19;;
73638;Laerm;53743;51.100;5.874;2022-10-15T03:36:35;31.03;29.23;32.78;;
73638;Laerm;53743;51.100;5.874;2022-10-15T03:37:39;30.83;28.81;34.29;;
73638;Laerm;53743;51.100;5.874;2022-10-15T03:38:42;54.29;29.51;68.22;;
73638;Laerm;53743;51.100;5.874;2022-10-15T03:39:46;31.02;28.75;34.07;;
73638;Laerm;53743;51.100;5.874;2022-10-15T03:40:48;54.65;29.12;68.92;;
73638;Laerm;53743;51.100;5.874;2022-10-15T03:41:54;35.79;28.42;50.57;;
73638;Laerm;53743;51.100;5.874;2022-10-15T03:43:00;55.25;28.85;70.91;;
73638;Laerm;53743;51.100;5.874;2022-10-15T03:44:02;31.31;28.36;37.62;;
73638;Laerm;53743;51.100;5.874;2022-10-15T03:45:05;30.00;28.14;32.37;;
73638;Laerm;53743;51.100;5.874;2022-10-15T03:46:06;30.70;28.64;32.57;;
73638;Laerm;53743;51.100;5.874;2022-10-15T03:47:11;30.12;28.24;33.06;;
73638;Laerm;53743;51.100;5.874;2022-10-15T03:48:20;54.35;29.33;69.20;;
73638;Laerm;53743;51.100;5.874;2022-10-15T03:49:20;31.91;29.63;37.97;;
73638;Laerm;53743;51.100;5.874;2022-10-15T03:50:21;35.10;28.80;47.66;;
73638;Laerm;53743;51.100;5.874;2022-10-15T03:51:22;59.32;34.80;72.91;;
73638;Laerm;53743;51.100;5.874;2022-10-15T03:52:26;32.62;28.81;41.65;;
73638;Laerm;53743;51.100;5.874;2022-10-15T03:53:28;30.93;28.85;35.13;;
73638;Laerm;53743;51.100;5.874;2022-10-15T03:54:29;31.18;29.04;34.63;;
73638;Laerm;53743;51.100;5.874;2022-10-15T03:55:30;32.24;29.78;37.40;;
73638;Laerm;53743;51.100;5.874;2022-10-15T03:56:32;44.35;28.89;61.67;;
73638;Laerm;53743;51.100;5.874;2022-10-15T03:57:48;56.04;29.21;69.52;;
73638;Laerm;53743;51.100;5.874;2022-10-15T03:58:49;31.17;29.08;35.12;;
73638;Laerm;53743;51.100;5.874;2022-10-15T03:59:50;48.04;30.03;60.35;;
73638;Laerm;53743;51.100;5.874;2022-10-15T04:00:52;31.54;29.52;37.42;;
73638;Laerm;53743;51.100;5.874;2022-10-15T04:01:52;30.66;28.96;36.11;;
73638;Laerm;53743;51.100;5.874;2022-10-15T04:02:53;31.01;28.65;35.77;;
73638;Laerm;53743;51.100;5.874;2022-10-15T04:03:59;31.66;29.66;34.04;;
73638;Laerm;53743;51.100;5.874;2022-10-15T04:05:00;32.32;29.33;40.75;;
73638;Laerm;53743;51.100;5.874;2022-10-15T04:06:00;32.06;29.49;40.51;;
73638;Laerm;53743;51.100;5.874;2022-10-15T04:07:02;48.20;29.75;65.39;;
73638;Laerm;53743;51.100;5.874;2022-10-15T04:08:05;54.38;29.23;69.54;;
73638;Laerm;53743;51.100;5.874;2022-10-15T04:09:10;58.46;31.19;74.26;;
73638;Laerm;53743;51.100;5.874;2022-10-15T04:10:11;59.14;31.59;72.78;;
73638;Laerm;53743;51.100;5.874;2022-10-15T04:11:13;33.14;30.34;37.47;;
73638;Laerm;53743;51.100;5.874;2022-10-15T04:12:15;57.44;29.82;73.24;;
73638;Laerm;53743;51.100;5.874;2022-10-15T04:13:16;31.55;29.09;35.26;;
73638;Laerm;53743;51.100;5.874;2022-10-15T04:14:17;32.33;29.49;41.56;;
73638;Laerm;53743;51.100;5.874;2022-10-15T04:15:19;31.32;29.51;34.04;;
73638;Laerm;53743;51.100;5.874;2022-10-15T04:16:26;58.69;29.02;76.34;;
73638;Laerm;53743;51.100;5.874;2022-10-15T04:17:27;32.47;29.47;37.82;;
73638;Laerm;53743;51.100;5.874;2022-10-15T04:18:27;33.14;30.08;39.29;;
73638;Laerm;53743;51.100;5.874;2022-10-15T04:19:29;54.98;29.94;69.58;;
73638;Laerm;53743;51.100;5.874;2022-10-15T04:20:36;55.41;29.67;70.62;;
73638;Laerm;53743;51.100;5.874;2022-10-15T04:21:46;62.04;33.06;77.45;;
73638;Laerm;53743;51.100;5.874;2022-10-15T04:23:00;32.15;28.76;41.09;;
73638;Laerm;53743;51.100;5.874;2022-10-15T04:24:02;57.26;30.69;70.33;;
73638;Laerm;53743;51.100;5.874;2022-10-15T04:25:08;60.28;32.04;76.05;;
73638;Laerm;53743;51.100;5.874;2022-10-15T04:26:09;57.41;30.58;72.06;;
73638;Laerm;53743;51.100;5.874;2022-10-15T04:27:12;32.03;29.92;35.53;;
73638;Laerm;53743;51.100;5.874;2022-10-15T04:28:12;57.33;29.35;74.87;;
73638;Laerm;53743;51.100;5.874;2022-10-15T04:29:14;56.81;29.40;75.34;;
73638;Laerm;53743;51.100;5.874;2022-10-15T04:30:15;31.81;29.95;34.34;;
73638;Laerm;53743;51.100;5.874;2022-10-15T04:31:21;32.15;29.83;43.59;;
73638;Laerm;53743;51.100;5.874;2022-10-15T04:32:23;34.46;29.81;51.73;;
73638;Laerm;53743;51.100;5.874;2022-10-15T04:33:24;52.01;32.06;65.46;;
73638;Laerm;53743;51.100;5.874;2022-10-15T04:34:28;54.15;30.82;71.14;;
73638;Laerm;53743;51.100;5.874;2022-10-15T04:35:28;62.74;30.69;77.12;;
73638;Laerm;53743;51.100;5.874;2022-10-15T04:36:40;62.86;32.29;77.08;;
73638;Laerm;53743;51.100;5.874;2022-10-15T04:37:48;54.98;31.80;69.45;;
73638;Laerm;53743;51.100;5.874;2022-10-15T04:38:49;32.67;30.27;36.03;;
73638;Laerm;53743;51.100;5.874;2022-10-15T04:39:59;59.91;33.92;71.35;;
73638;Laerm;53743;51.100;5.874;2022-10-15T04:41:07;53.90;30.31;68.66;;
73638;Laerm;53743;51.100;5.874;2022-10-15T04:42:33;55.60;30.05;77.32;;
73638;Laerm;53743;51.100;5.874;2022-10-15T04:43:35;53.03;30.19;67.56;;
73638;Laerm;53743;51.100;5.874;2022-10-15T04:44:40;44.60;30.25;62.19;;
73638;Laerm;53743;51.100;5.874;2022-10-15T04:45:41;59.00;30.40;78.88;;
73638;Laerm;53743;51.100;5.874;2022-10-15T04:46:41;37.81;30.29;54.55;;
73638;Laerm;53743;51.100;5.874;2022-10-15T04:47:59;56.07;31.35;72.20;;
73638;Laerm;53743;51.100;5.874;2022-10-15T04:49:00;58.52;32.60;72.18;;
73638;Laerm;53743;51.100;5.874;2022-10-15T04:50:01;58.84;30.37;78.19;;
73638;Laerm;53743;51.100;5.874;2022-10-15T04:51:25;60.89;32.48;75.55;;
73638;Laerm;53743;51.100;5.874;2022-10-15T04:52:49;34.97;30.55;54.77;;
73638;Laerm;53743;51.100;5.874;2022-10-15T04:53:51;37.69;30.18;52.43;;
73638;Laerm;53743;51.100;5.874;2022-10-15T04:54:52;60.67;30.86;74.87;;
73638;Laerm;53743;51.100;5.874;2022-10-15T04:55:59;39.91;30.36;54.97;;
73638;Laerm;53743;51.100;5.874;2022-10-15T04:57:00;52.38;31.81;66.56;;
73638;Laerm;53743;51.100;5.874;2022-10-15T04:58:01;55.44;31.27;70.49;;
73638;Laerm;53743;51.100;5.874;2022-10-15T04:59:06;34.73;30.44;45.12;;
73638;Laerm;53743;51.100;5.874;2022-10-15T05:00:14;60.36;38.94;72.63;;
73638;Laerm;53743;51.100;5.874;2022-10-15T05:01:34;55.18;30.79;74.28;;
73638;Laerm;53743;51.100;5.874;2022-10-15T05:02:41;56.48;31.69;68.48;;
73638;Laerm;53743;51.100;5.874;2022-10-15T05:03:51;51.38;30.91;66.27;;
73638;Laerm;53743;51.100;5.874;2022-10-15T05:04:52;58.01;30.19;70.88;;
73638;Laerm;53743;51.100;5.874;2022-10-15T05:05:58;43.59;30.60;58.28;;
73638;Laerm;53743;51.100;5.874;2022-10-15T05:06:59;58.97;31.17;71.97;;
73638;Laerm;53743;51.100;5.874;2022-10-15T05:08:02;37.31;31.50;51.81;;
73638;Laerm;53743;51.100;5.874;2022-10-15T05:09:06;35.09;30.53;42.69;;
73638;Laerm;53743;51.100;5.874;2022-10-15T05:10:07;33.63;30.98;40.30;;
73638;Laerm;53743;51.100;5.874;2022-10-15T05:11:13;58.47;30.70;73.60;;
73638;Laerm;53743;51.100;5.874;2022-10-15T05:12:15;54.03;31.62;68.34;;
73638;Laerm;53743;51.100;5.874;2022-10-15T05:13:15;55.47;31.29;73.79;;
73638;Laerm;53743;51.100;5.874;2022-10-15T05:14:17;55.68;30.35;76.01;;
73638;Laerm;53743;51.100;5.874;2022-10-15T05:15:27;57.12;31.17;71.14;;
73638;Laerm;53743;51.100;5.874;2022-10-15T05:16:29;55.74;30.61;70.35;;
73638;Laerm;53743;51.100;5.874;2022-10-15T05:17:32;45.95;32.82;60.92;;
73638;Laerm;53743;51.100;5.874;2022-10-15T05:18:33;59.21;30.62;71.30;;
73638;Laerm;53743;51.100;5.874;2022-10-15T05:19:34;37.68;30.32;60.05;;
73638;Laerm;53743;51.100;5.874;2022-10-15T05:20:35;58.39;31.50;74.44;;
73638;Laerm;53743;51.100;5.874;2022-10-15T05:21:37;37.36;30.88;55.97;;
73638;Laerm;53743;51.100;5.874;2022-10-15T05:22:43;34.11;30.65;43.78;;
73638;Laerm;53743;51.100;5.874;2022-10-15T05:23:46;60.05;30.87;75.16;;
73638;Laerm;53743;51.100;5.874;2022-10-15T05:25:15;58.80;32.35;73.57;;
73638;Laerm;53743;51.100;5.874;2022-10-15T05:26:20;58.09;31.71;68.10;;
73638;Laerm;53743;51.100;5.874;2022-10-15T05:27:21;57.26;32.10;73.51;;
73638;Laerm;53743;51.100;5.874;2022-10-15T05:28:22;54.92;31.40;69.69;;
73638;Laerm;53743;51.100;5.874;2022-10-15T05:29:22;51.92;31.91;67.14;;
73638;Laerm;53743;51.100;5.874;2022-10-15T05:30:23;33.21;30.07;45.72;;
73638;Laerm;53743;51.100;5.874;2022-10-15T05:31:29;33.31;29.94;46.10;;
73638;Laerm;53743;51.100;5.874;2022-10-15T05:32:40;57.04;30.24;72.28;;
73638;Laerm;53743;51.100;5.874;2022-10-15T05:33:49;36.38;30.75;51.99;;
73638;Laerm;53743;51.100;5.874;2022-10-15T05:34:52;56.99;35.04;69.55;;
73638;Laerm;53743;51.100;5.874;2022-10-15T05:35:54;56.12;32.83;70.55;;
73638;Laerm;53743;51.100;5.874;2022-10-15T05:36:55;37.81;31.68;44.52;;
73638;Laerm;53743;51.100;5.874;2022-10-15T05:37:56;59.44;32.57;72.58;;
73638;Laerm;53743;51.100;5.874;2022-10-15T05:39:01;62.20;32.56;75.51;;
73638;Laerm;53743;51.100;5.874;2022-10-15T05:40:04;50.60;31.14;68.68;;
73638;Laerm;53743;51.100;5.874;2022-10-15T05:41:06;56.95;32.32;69.22;;
73638;Laerm;53743;51.100;5.874;2022-10-15T05:42:08;57.37;33.17;73.24;;
73638;Laerm;53743;51.100;5.874;2022-10-15T05:43:15;36.19;33.27;43.87;;
73638;Laerm;53743;51.100;5.874;2022-10-15T05:44:16;61.83;33.42;74.43;;
73638;Laerm;53743;51.100;5.874;2022-10-15T05:45:16;58.07;39.05;70.52;;
73638;Laerm;53743;51.100;5.874;2022-10-15T05:46:19;46.21;35.61;56.84;;
73638;Laerm;53743;51.100;5.874;2022-10-15T05:47:20;60.19;39.15;73.70;;
73638;Laerm;53743;51.100;5.874;2022-10-15T05:48:21;61.10;42.00;72.72;;
73638;Laerm;53743;51.100;5.874;2022-10-15T05:49:21;63.83;50.44;75.40;;
73638;Laerm;53743;51.100;5.874;2022-10-15T05:50:30;61.09;40.80;78.32;;
73638;Laerm;53743;51.100;5.874;2022-10-15T05:51:32;60.64;36.91;72.53;;
73638;Laerm;53743;51.100;5.874;2022-10-15T05:52:41;62.83;31.92;77.58;;
73638;Laerm;53743;51.100;5.874;2022-10-15T05:54:14;40.75;32.07;66.72;;
73638;Laerm;53743;51.100;5.874;2022-10-15T05:55:15;63.63;33.78;75.74;;
73638;Laerm;53743;51.100;5.874;2022-10-15T05:56:16;60.50;40.12;74.92;;
73638;Laerm;53743;51.100;5.874;2022-10-15T05:57:17;61.87;45.52;70.92;;
73638;Laerm;53743;51.100;5.874;2022-10-15T05:58:17;61.28;37.95;75.86;;
73638;Laerm;53743;51.100;5.874;2022-10-15T05:59:18;60.10;37.36;72.63;;
73638;Laerm;53743;51.100;5.874;2022-10-15T06:00:18;61.01;34.80;74.72;;
73638;Laerm;53743;51.100;5.874;2022-10-15T06:01:26;61.69;40.99;77.63;;
73638;Laerm;53743;51.100;5.874;2022-10-15T06:02:26;60.77;36.39;74.29;;
73638;Laerm;53743;51.100;5.874;2022-10-15T06:03:28;60.42;36.51;72.16;;
73638;Laerm;53743;51.100;5.874;2022-10-15T06:04:28;62.15;34.68;77.28;;
73638;Laerm;53743;51.100;5.874;2022-10-15T06:05:31;54.14;32.97;70.06;;
73638;Laerm;53743;51.100;5.874;2022-10-15T06:06:32;61.64;36.86;73.13;;
73638;Laerm;53743;51.100;5.874;2022-10-15T06:07:32;61.72;37.71;72.52;;
73638;Laerm;53743;51.100;5.874;2022-10-15T06:08:36;54.59;34.72;71.42;;
73638;Laerm;53743;51.100;5.874;2022-10-15T06:09:37;55.41;31.92;70.54;;
73638;Laerm;53743;51.100;5.874;2022-10-15T06:10:37;44.41;34.93;58.64;;
73638;Laerm;53743;51.100;5.874;2022-10-15T06:11:39;62.24;36.41;73.18;;
73638;Laerm;53743;51.100;5.874;2022-10-15T06:12:41;57.94;32.97;69.60;;
73638;Laerm;53743;51.100;5.874;2022-10-15T06:13:44;57.24;32.28;70.12;;
73638;Laerm;53743;51.100;5.874;2022-10-15T06:14:45;64.50;40.77;73.27;;
73638;Laerm;53743;51.100;5.874;2022-10-15T06:15:45;57.93;38.28;71.90;;
73638;Laerm;53743;51.100;5.874;2022-10-15T06:16:46;60.71;37.24;76.94;;
73638;Laerm;53743;51.100;5.874;2022-10-15T06:17:52;60.93;35.30;76.14;;
73638;Laerm;53743;51.100;5.874;2022-10-15T06:18:53;39.38;33.83;52.39;;
73638;Laerm;53743;51.100;5.874;2022-10-15T06:19:54;59.67;35.06;71.19;;
73638;Laerm;53743;51.100;5.874;2022-10-15T06:20:55;61.59;41.80;74.09;;
73638;Laerm;53743;51.100;5.874;2022-10-15T06:21:56;60.21;39.27;78.13;;
73638;Laerm;53743;51.100;5.874;2022-10-15T06:22:58;62.31;44.46;71.97;;
73638;Laerm;53743;51.100;5.874;2022-10-15T06:23:59;61.87;38.22;74.98;;
73638;Laerm;53743;51.100;5.874;2022-10-15T06:25:00;59.18;38.69;70.83;;
73638;Laerm;53743;51.100;5.874;2022-10-15T06:26:08;61.52;38.44;75.57;;